sensor_id;sensor_type;location;lat;lon;timestamp;temperature;humidity
15707;DHT22;7953;54.302;10.128;2022-07-05T00:01:22;14.00;99.90
15707;DHT22;7953;54.302;10.128;2022-07-05T00:03:49;14.00;99.90
15707;DHT22;7953;54.302;10.128;2022-07-05T00:06:16;14.00;99.90
15707;DHT22;7953;54.302;10.128;2022-07-05T00:08:43;13.90;99.90
15707;DHT22;7953;54.302;10.128;2022-07-05T00:11:11;14.00;99.90
15707;DHT22;7953;54.302;10.128;2022-07-05T00:13:38;13.90;99.90
15707;DHT22;7953;54.302;10.128;2022-07-05T00:16:05;14.00;99.90
15707;DHT22;7953;54.302;10.128;2022-07-05T00:18:32;14.00;99.90
15707;DHT22;7953;54.302;10.128;2022-07-05T00:20:59;14.00;99.90
15707;DHT22;7953;54.302;10.128;2022-07-05T00:23:26;13.90;99.90
15707;DHT22;7953;54.302;10.128;2022-07-05T00:25:53;13.90;99.90
15707;DHT22;7953;54.302;10.128;2022-07-05T00:28:21;13.90;99.90
15707;DHT22;7953;54.302;10.128;2022-07-05T00:30:48;13.90;99.90
15707;DHT22;7953;54.302;10.128;2022-07-05T00:33:15;14.00;99.90
15707;DHT22;7953;54.302;10.128;2022-07-05T00:35:42;13.90;99.90
15707;DHT22;7953;54.302;10.128;2022-07-05T00:38:09;13.90;99.90
15707;DHT22;7953;54.302;10.128;2022-07-05T00:40:36;13.90;99.90
15707;DHT22;7953;54.302;10.128;2022-07-05T00:43:02;13.90;99.90
15707;DHT22;7953;54.302;10.128;2022-07-05T00:45:31;13.80;99.90
15707;DHT22;7953;54.302;10.128;2022-07-05T00:47:58;13.80;99.90
15707;DHT22;7953;54.302;10.128;2022-07-05T00:50:25;13.80;99.90
15707;DHT22;7953;54.302;10.128;2022-07-05T00:52:54;13.80;99.90
15707;DHT22;7953;54.302;10.128;2022-07-05T00:55:21;13.80;99.90
15707;DHT22;7953;54.302;10.128;2022-07-05T00:57:49;13.70;99.90
15707;DHT22;7953;54.302;10.128;2022-07-05T01:00:16;13.70;99.90
15707;DHT22;7953;54.302;10.128;2022-07-05T01:02:45;13.70;99.90
15707;DHT22;7953;54.302;10.128;2022-07-05T01:05:12;13.70;99.90
15707;DHT22;7953;54.302;10.128;2022-07-05T01:07:39;13.70;99.90
15707;DHT22;7953;54.302;10.128;2022-07-05T01:10:07;13.70;99.90
15707;DHT22;7953;54.302;10.128;2022-07-05T01:12:34;13.70;99.90
15707;DHT22;7953;54.302;10.128;2022-07-05T01:15:03;13.70;99.90
15707;DHT22;7953;54.302;10.128;2022-07-05T01:17:31;13.60;99.90
15707;DHT22;7953;54.302;10.128;2022-07-05T01:19:59;13.60;99.90
15707;DHT22;7953;54.302;10.128;2022-07-05T01:22:27;13.60;99.90
15707;DHT22;7953;54.302;10.128;2022-07-05T01:24:55;13.60;99.90
15707;DHT22;7953;54.302;10.128;2022-07-05T01:27:22;13.60;99.90
15707;DHT22;7953;54.302;10.128;2022-07-05T01:29:49;13.60;99.90
15707;DHT22;7953;54.302;10.128;2022-07-05T01:32:16;13.50;99.90
15707;DHT22;7953;54.302;10.128;2022-07-05T01:34:43;13.50;99.90
15707;DHT22;7953;54.302;10.128;2022-07-05T01:37:10;13.50;99.90
15707;DHT22;7953;54.302;10.128;2022-07-05T01:39:38;13.50;99.90
15707;DHT22;7953;54.302;10.128;2022-07-05T01:42:06;13.50;99.90
15707;DHT22;7953;54.302;10.128;2022-07-05T01:44:33;13.50;99.90
15707;DHT22;7953;54.302;10.128;2022-07-05T01:47:05;13.40;99.90
15707;DHT22;7953;54.302;10.128;2022-07-05T01:49:39;13.40;99.90
15707;DHT22;7953;54.302;10.128;2022-07-05T01:52:09;13.40;99.90
15707;DHT22;7953;54.302;10.128;2022-07-05T01:54:36;13.40;99.90
15707;DHT22;7953;54.302;10.128;2022-07-05T01:57:06;13.40;99.90
15707;DHT22;7953;54.302;10.128;2022-07-05T01:59:34;13.30;99.90
15707;DHT22;7953;54.302;10.128;2022-07-05T02:02:02;13.40;99.90
15707;DHT22;7953;54.302;10.128;2022-07-05T02:04:29;13.40;99.90
15707;DHT22;7953;54.302;10.128;2022-07-05T02:06:56;13.40;99.90
15707;DHT22;7953;54.302;10.128;2022-07-05T02:09:24;13.40;99.90
15707;DHT22;7953;54.302;10.128;2022-07-05T02:11:51;13.30;99.90
15707;DHT22;7953;54.302;10.128;2022-07-05T02:14:19;13.30;99.90
15707;DHT22;7953;54.302;10.128;2022-07-05T02:16:46;13.30;99.90
15707;DHT22;7953;54.302;10.128;2022-07-05T02:19:13;13.30;99.90
15707;DHT22;7953;54.302;10.128;2022-07-05T02:21:40;13.30;99.90
15707;DHT22;7953;54.302;10.128;2022-07-05T02:24:08;13.30;99.90
15707;DHT22;7953;54.302;10.128;2022-07-05T02:26:35;13.30;99.90
15707;DHT22;7953;54.302;10.128;2022-07-05T02:29:03;13.30;99.90
15707;DHT22;7953;54.302;10.128;2022-07-05T02:31:32;13.30;99.90
15707;DHT22;7953;54.302;10.128;2022-07-05T02:33:58;13.30;99.90
15707;DHT22;7953;54.302;10.128;2022-07-05T02:36:26;13.30;99.90
15707;DHT22;7953;54.302;10.128;2022-07-05T02:38:53;13.30;99.90
15707;DHT22;7953;54.302;10.128;2022-07-05T02:41:20;13.40;99.90
15707;DHT22;7953;54.302;10.128;2022-07-05T02:43:47;13.30;99.90
15707;DHT22;7953;54.302;10.128;2022-07-05T02:46:14;13.30;99.90
15707;DHT22;7953;54.302;10.128;2022-07-05T02:48:42;13.40;99.90
15707;DHT22;7953;54.302;10.128;2022-07-05T02:51:09;13.30;99.90
15707;DHT22;7953;54.302;10.128;2022-07-05T02:53:36;13.40;99.90
15707;DHT22;7953;54.302;10.128;2022-07-05T02:56:03;13.40;99.90
15707;DHT22;7953;54.302;10.128;2022-07-05T02:58:30;13.40;99.90
15707;DHT22;7953;54.302;10.128;2022-07-05T03:00:57;13.40;99.90
15707;DHT22;7953;54.302;10.128;2022-07-05T03:03:24;13.40;99.90
15707;DHT22;7953;54.302;10.128;2022-07-05T03:05:53;13.40;99.90
15707;DHT22;7953;54.302;10.128;2022-07-05T03:08:20;13.40;99.90
15707;DHT22;7953;54.302;10.128;2022-07-05T03:10:47;13.40;99.90
15707;DHT22;7953;54.302;10.128;2022-07-05T03:13:14;13.40;99.90
15707;DHT22;7953;54.302;10.128;2022-07-05T03:15:41;13.40;99.90
15707;DHT22;7953;54.302;10.128;2022-07-05T03:18:08;13.40;99.90
15707;DHT22;7953;54.302;10.128;2022-07-05T03:20:35;13.40;99.90
15707;DHT22;7953;54.302;10.128;2022-07-05T03:23:03;13.40;99.90
15707;DHT22;7953;54.302;10.128;2022-07-05T03:25:30;13.40;99.90
15707;DHT22;7953;54.302;10.128;2022-07-05T03:27:57;13.40;99.90
15707;DHT22;7953;54.302;10.128;2022-07-05T03:30:24;13.40;99.90
15707;DHT22;7953;54.302;10.128;2022-07-05T03:32:51;13.40;99.90
15707;DHT22;7953;54.302;10.128;2022-07-05T03:35:18;13.40;99.90
15707;DHT22;7953;54.302;10.128;2022-07-05T03:37:44;13.40;99.90
15707;DHT22;7953;54.302;10.128;2022-07-05T03:40:13;13.40;99.90
15707;DHT22;7953;54.302;10.128;2022-07-05T03:42:40;13.40;99.90
15707;DHT22;7953;54.302;10.128;2022-07-05T03:45:08;13.30;99.90
15707;DHT22;7953;54.302;10.128;2022-07-05T03:47:35;13.30;99.90
15707;DHT22;7953;54.302;10.128;2022-07-05T03:50:02;13.30;99.90
15707;DHT22;7953;54.302;10.128;2022-07-05T03:52:29;13.30;99.90
15707;DHT22;7953;54.302;10.128;2022-07-05T03:54:56;13.30;99.90
15707;DHT22;7953;54.302;10.128;2022-07-05T03:57:24;13.20;99.90
15707;DHT22;7953;54.302;10.128;2022-07-05T03:59:51;13.20;99.90
15707;DHT22;7953;54.302;10.128;2022-07-05T04:02:18;13.20;99.90
15707;DHT22;7953;54.302;10.128;2022-07-05T04:04:45;13.20;99.90
15707;DHT22;7953;54.302;10.128;2022-07-05T04:07:12;13.20;99.90
15707;DHT22;7953;54.302;10.128;2022-07-05T04:09:39;13.20;99.90
15707;DHT22;7953;54.302;10.128;2022-07-05T04:12:06;13.20;99.90
15707;DHT22;7953;54.302;10.128;2022-07-05T04:14:35;13.30;99.90
15707;DHT22;7953;54.302;10.128;2022-07-05T04:17:02;13.30;99.90
15707;DHT22;7953;54.302;10.128;2022-07-05T04:19:29;13.30;99.90
15707;DHT22;7953;54.302;10.128;2022-07-05T04:21:56;13.30;99.90
15707;DHT22;7953;54.302;10.128;2022-07-05T04:24:22;13.30;99.90
15707;DHT22;7953;54.302;10.128;2022-07-05T04:26:49;13.40;99.90
15707;DHT22;7953;54.302;10.128;2022-07-05T04:29:16;13.40;99.90
15707;DHT22;7953;54.302;10.128;2022-07-05T04:31:44;13.40;99.90
15707;DHT22;7953;54.302;10.128;2022-07-05T04:34:12;13.50;99.90
15707;DHT22;7953;54.302;10.128;2022-07-05T04:36:39;13.50;99.90
15707;DHT22;7953;54.302;10.128;2022-07-05T04:39:06;13.50;99.90
15707;DHT22;7953;54.302;10.128;2022-07-05T04:41:34;13.50;99.90
15707;DHT22;7953;54.302;10.128;2022-07-05T04:44:01;13.50;99.90
15707;DHT22;7953;54.302;10.128;2022-07-05T04:46:28;13.50;99.90
15707;DHT22;7953;54.302;10.128;2022-07-05T04:48:56;13.50;99.90
15707;DHT22;7953;54.302;10.128;2022-07-05T04:51:23;13.60;99.90
15707;DHT22;7953;54.302;10.128;2022-07-05T04:53:50;13.60;99.90
15707;DHT22;7953;54.302;10.128;2022-07-05T04:56:17;13.60;99.90
15707;DHT22;7953;54.302;10.128;2022-07-05T04:58:44;13.60;99.90
15707;DHT22;7953;54.302;10.128;2022-07-05T05:01:10;13.70;99.90
15707;DHT22;7953;54.302;10.128;2022-07-05T05:03:37;13.70;99.90
15707;DHT22;7953;54.302;10.128;2022-07-05T05:06:06;13.80;99.90
15707;DHT22;7953;54.302;10.128;2022-07-05T05:08:33;13.80;99.90
15707;DHT22;7953;54.302;10.128;2022-07-05T05:11:00;13.90;99.90
15707;DHT22;7953;54.302;10.128;2022-07-05T05:13:27;14.10;99.90
15707;DHT22;7953;54.302;10.128;2022-07-05T05:15:54;14.20;99.90
15707;DHT22;7953;54.302;10.128;2022-07-05T05:18:21;14.40;99.90
15707;DHT22;7953;54.302;10.128;2022-07-05T05:20:52;14.50;99.90
15707;DHT22;7953;54.302;10.128;2022-07-05T05:23:21;14.60;99.90
15707;DHT22;7953;54.302;10.128;2022-07-05T05:25:48;14.50;99.90
15707;DHT22;7953;54.302;10.128;2022-07-05T05:28:14;14.50;99.90
15707;DHT22;7953;54.302;10.128;2022-07-05T05:30:41;14.60;99.90
15707;DHT22;7953;54.302;10.128;2022-07-05T05:33:08;14.60;99.90
15707;DHT22;7953;54.302;10.128;2022-07-05T05:35:35;14.70;99.90
15707;DHT22;7953;54.302;10.128;2022-07-05T05:38:02;14.70;99.90
15707;DHT22;7953;54.302;10.128;2022-07-05T05:40:31;14.80;99.90
15707;DHT22;7953;54.302;10.128;2022-07-05T05:42:58;14.80;99.90
15707;DHT22;7953;54.302;10.128;2022-07-05T05:45:26;14.80;99.90
15707;DHT22;7953;54.302;10.128;2022-07-05T05:47:56;14.80;99.90
15707;DHT22;7953;54.302;10.128;2022-07-05T05:50:25;14.90;99.90
15707;DHT22;7953;54.302;10.128;2022-07-05T05:52:53;15.00;99.90
15707;DHT22;7953;54.302;10.128;2022-07-05T05:55:21;15.10;99.90
15707;DHT22;7953;54.302;10.128;2022-07-05T05:57:50;15.20;99.90
15707;DHT22;7953;54.302;10.128;2022-07-05T06:00:17;15.20;99.90
15707;DHT22;7953;54.302;10.128;2022-07-05T06:02:46;15.30;99.90
15707;DHT22;7953;54.302;10.128;2022-07-05T06:05:13;15.40;99.90
15707;DHT22;7953;54.302;10.128;2022-07-05T06:07:45;15.40;99.90
15707;DHT22;7953;54.302;10.128;2022-07-05T06:10:15;15.50;99.90
15707;DHT22;7953;54.302;10.128;2022-07-05T06:12:42;15.70;99.90
15707;DHT22;7953;54.302;10.128;2022-07-05T06:15:11;15.80;99.90
15707;DHT22;7953;54.302;10.128;2022-07-05T06:17:38;15.90;99.90
15707;DHT22;7953;54.302;10.128;2022-07-05T06:20:07;16.10;99.90
15707;DHT22;7953;54.302;10.128;2022-07-05T06:22:34;16.30;99.90
15707;DHT22;7953;54.302;10.128;2022-07-05T06:25:01;16.50;99.90
15707;DHT22;7953;54.302;10.128;2022-07-05T06:27:28;16.70;99.90
15707;DHT22;7953;54.302;10.128;2022-07-05T06:29:55;16.80;99.90
15707;DHT22;7953;54.302;10.128;2022-07-05T06:32:24;16.90;99.90
15707;DHT22;7953;54.302;10.128;2022-07-05T06:34:51;17.10;99.90
15707;DHT22;7953;54.302;10.128;2022-07-05T06:37:18;17.20;99.90
15707;DHT22;7953;54.302;10.128;2022-07-05T06:39:45;17.20;99.90
15707;DHT22;7953;54.302;10.128;2022-07-05T06:42:12;17.30;99.90
15707;DHT22;7953;54.302;10.128;2022-07-05T06:44:39;17.40;99.90
15707;DHT22;7953;54.302;10.128;2022-07-05T06:47:06;17.60;99.90
15707;DHT22;7953;54.302;10.128;2022-07-05T06:49:34;17.70;99.90
15707;DHT22;7953;54.302;10.128;2022-07-05T06:52:01;17.70;99.90
15707;DHT22;7953;54.302;10.128;2022-07-05T06:54:28;17.60;99.90
15707;DHT22;7953;54.302;10.128;2022-07-05T06:56:55;17.70;99.90
15707;DHT22;7953;54.302;10.128;2022-07-05T06:59:22;17.80;99.90
15707;DHT22;7953;54.302;10.128;2022-07-05T07:01:49;17.80;99.90
15707;DHT22;7953;54.302;10.128;2022-07-05T07:04:16;17.80;99.90
15707;DHT22;7953;54.302;10.128;2022-07-05T07:06:44;17.80;99.90
15707;DHT22;7953;54.302;10.128;2022-07-05T07:09:11;17.90;99.90
15707;DHT22;7953;54.302;10.128;2022-07-05T07:11:47;18.00;99.90
15707;DHT22;7953;54.302;10.128;2022-07-05T07:14:14;18.10;99.90
15707;DHT22;7953;54.302;10.128;2022-07-05T07:16:41;18.20;99.90
15707;DHT22;7953;54.302;10.128;2022-07-05T07:19:09;18.40;99.90
15707;DHT22;7953;54.302;10.128;2022-07-05T07:21:36;18.60;99.90
15707;DHT22;7953;54.302;10.128;2022-07-05T07:24:05;18.80;99.90
15707;DHT22;7953;54.302;10.128;2022-07-05T07:26:32;19.00;99.90
15707;DHT22;7953;54.302;10.128;2022-07-05T07:29:19;19.10;99.90
15707;DHT22;7953;54.302;10.128;2022-07-05T07:31:46;19.00;99.90
15707;DHT22;7953;54.302;10.128;2022-07-05T07:34:13;18.90;99.90
15707;DHT22;7953;54.302;10.128;2022-07-05T07:36:40;18.90;99.90
15707;DHT22;7953;54.302;10.128;2022-07-05T07:39:08;19.00;99.90
15707;DHT22;7953;54.302;10.128;2022-07-05T07:41:35;19.00;99.90
15707;DHT22;7953;54.302;10.128;2022-07-05T07:44:02;19.10;99.90
15707;DHT22;7953;54.302;10.128;2022-07-05T07:46:29;18.90;99.90
15707;DHT22;7953;54.302;10.128;2022-07-05T07:48:56;18.80;99.90
15707;DHT22;7953;54.302;10.128;2022-07-05T07:51:23;18.70;99.90
15707;DHT22;7953;54.302;10.128;2022-07-05T07:53:50;18.60;99.90
15707;DHT22;7953;54.302;10.128;2022-07-05T07:56:18;18.60;99.90
15707;DHT22;7953;54.302;10.128;2022-07-05T07:58:46;18.60;99.90
15707;DHT22;7953;54.302;10.128;2022-07-05T08:01:13;18.40;99.90
15707;DHT22;7953;54.302;10.128;2022-07-05T08:03:41;18.50;99.90
15707;DHT22;7953;54.302;10.128;2022-07-05T08:06:09;18.50;99.90
15707;DHT22;7953;54.302;10.128;2022-07-05T08:08:36;18.50;99.90
15707;DHT22;7953;54.302;10.128;2022-07-05T08:11:04;18.60;99.90
15707;DHT22;7953;54.302;10.128;2022-07-05T08:13:33;18.70;99.90
15707;DHT22;7953;54.302;10.128;2022-07-05T08:16:00;19.00;99.90
15707;DHT22;7953;54.302;10.128;2022-07-05T08:18:26;19.40;99.90
15707;DHT22;7953;54.302;10.128;2022-07-05T08:21:11;19.90;99.90
15707;DHT22;7953;54.302;10.128;2022-07-05T08:23:56;20.40;99.90
15707;DHT22;7953;54.302;10.128;2022-07-05T08:26:23;20.90;99.90
15707;DHT22;7953;54.302;10.128;2022-07-05T08:28:51;21.10;99.90
15707;DHT22;7953;54.302;10.128;2022-07-05T08:31:19;21.10;99.90
15707;DHT22;7953;54.302;10.128;2022-07-05T08:33:46;20.90;99.90
15707;DHT22;7953;54.302;10.128;2022-07-05T08:36:13;20.40;99.90
15707;DHT22;7953;54.302;10.128;2022-07-05T08:38:40;20.00;99.90
15707;DHT22;7953;54.302;10.128;2022-07-05T08:41:08;19.50;99.90
15707;DHT22;7953;54.302;10.128;2022-07-05T08:43:40;19.20;99.90
15707;DHT22;7953;54.302;10.128;2022-07-05T08:46:09;19.00;99.90
15707;DHT22;7953;54.302;10.128;2022-07-05T08:48:38;19.00;99.90
15707;DHT22;7953;54.302;10.128;2022-07-05T08:51:10;19.10;99.90
15707;DHT22;7953;54.302;10.128;2022-07-05T08:53:39;19.20;99.90
15707;DHT22;7953;54.302;10.128;2022-07-05T08:56:07;19.40;99.90
15707;DHT22;7953;54.302;10.128;2022-07-05T08:58:34;19.50;99.90
15707;DHT22;7953;54.302;10.128;2022-07-05T09:01:01;19.70;99.90
15707;DHT22;7953;54.302;10.128;2022-07-05T09:03:32;20.30;99.90
15707;DHT22;7953;54.302;10.128;2022-07-05T09:06:01;20.50;99.90
15707;DHT22;7953;54.302;10.128;2022-07-05T09:08:30;20.50;99.90
15707;DHT22;7953;54.302;10.128;2022-07-05T09:11:01;20.60;99.90
15707;DHT22;7953;54.302;10.128;2022-07-05T09:13:28;20.70;99.90
15707;DHT22;7953;54.302;10.128;2022-07-05T09:15:58;20.70;99.90
15707;DHT22;7953;54.302;10.128;2022-07-05T09:18:46;20.40;99.90
15707;DHT22;7953;54.302;10.128;2022-07-05T09:21:18;20.10;99.90
15707;DHT22;7953;54.302;10.128;2022-07-05T09:23:52;20.00;99.90
15707;DHT22;7953;54.302;10.128;2022-07-05T09:26:20;19.70;99.90
15707;DHT22;7953;54.302;10.128;2022-07-05T09:28:56;19.60;99.90
15707;DHT22;7953;54.302;10.128;2022-07-05T09:31:28;19.50;99.90
15707;DHT22;7953;54.302;10.128;2022-07-05T09:34:03;19.90;99.90
15707;DHT22;7953;54.302;10.128;2022-07-05T09:36:56;20.60;99.90
15707;DHT22;7953;54.302;10.128;2022-07-05T09:39:44;21.30;99.90
15707;DHT22;7953;54.302;10.128;2022-07-05T09:42:16;21.50;99.90
15707;DHT22;7953;54.302;10.128;2022-07-05T09:44:47;21.70;99.90
15707;DHT22;7953;54.302;10.128;2022-07-05T09:47:15;22.00;99.90
15707;DHT22;7953;54.302;10.128;2022-07-05T09:49:44;22.00;99.90
15707;DHT22;7953;54.302;10.128;2022-07-05T09:52:26;22.20;99.90
15707;DHT22;7953;54.302;10.128;2022-07-05T09:55:05;22.80;99.90
15707;DHT22;7953;54.302;10.128;2022-07-05T09:57:33;23.30;99.90
15707;DHT22;7953;54.302;10.128;2022-07-05T10:00:03;23.10;99.90
15707;DHT22;7953;54.302;10.128;2022-07-05T10:02:37;22.50;99.90
15707;DHT22;7953;54.302;10.128;2022-07-05T10:05:09;22.00;99.90
15707;DHT22;7953;54.302;10.128;2022-07-05T10:07:39;21.40;99.90
15707;DHT22;7953;54.302;10.128;2022-07-05T10:10:07;20.90;99.90
15707;DHT22;7953;54.302;10.128;2022-07-05T10:12:36;20.60;99.90
15707;DHT22;7953;54.302;10.128;2022-07-05T10:15:04;20.40;99.90
15707;DHT22;7953;54.302;10.128;2022-07-05T10:17:36;20.20;99.90
15707;DHT22;7953;54.302;10.128;2022-07-05T10:20:06;20.10;99.90
15707;DHT22;7953;54.302;10.128;2022-07-05T10:22:38;19.90;99.90
15707;DHT22;7953;54.302;10.128;2022-07-05T10:25:06;20.00;99.90
15707;DHT22;7953;54.302;10.128;2022-07-05T10:27:34;20.30;99.90
15707;DHT22;7953;54.302;10.128;2022-07-05T10:30:04;20.50;99.90
15707;DHT22;7953;54.302;10.128;2022-07-05T10:32:33;20.60;99.90
15707;DHT22;7953;54.302;10.128;2022-07-05T10:35:01;20.60;99.90
15707;DHT22;7953;54.302;10.128;2022-07-05T10:37:31;20.80;99.90
15707;DHT22;7953;54.302;10.128;2022-07-05T10:40:00;21.10;99.90
15707;DHT22;7953;54.302;10.128;2022-07-05T10:42:35;21.30;99.90
15707;DHT22;7953;54.302;10.128;2022-07-05T10:45:03;21.30;99.90
15707;DHT22;7953;54.302;10.128;2022-07-05T10:48:12;21.70;99.90
15707;DHT22;7953;54.302;10.128;2022-07-05T10:50:47;22.20;99.90
15707;DHT22;7953;54.302;10.128;2022-07-05T10:53:15;22.50;99.90
15707;DHT22;7953;54.302;10.128;2022-07-05T10:55:52;22.70;99.90
15707;DHT22;7953;54.302;10.128;2022-07-05T10:58:25;22.70;99.90
15707;DHT22;7953;54.302;10.128;2022-07-05T11:04:11;22.30;99.90
15707;DHT22;7953;54.302;10.128;2022-07-05T11:06:41;22.10;99.90
15707;DHT22;7953;54.302;10.128;2022-07-05T11:09:16;22.50;99.90
15707;DHT22;7953;54.302;10.128;2022-07-05T11:11:46;23.00;99.90
15707;DHT22;7953;54.302;10.128;2022-07-05T11:14:36;23.40;99.90
15707;DHT22;7953;54.302;10.128;2022-07-05T11:17:18;23.40;99.90
15707;DHT22;7953;54.302;10.128;2022-07-05T11:20:14;23.10;99.90
15707;DHT22;7953;54.302;10.128;2022-07-05T11:23:10;22.50;99.90
15707;DHT22;7953;54.302;10.128;2022-07-05T11:25:40;22.20;99.90
15707;DHT22;7953;54.302;10.128;2022-07-05T11:28:16;22.00;99.90
15707;DHT22;7953;54.302;10.128;2022-07-05T11:31:00;21.80;99.90
15707;DHT22;7953;54.302;10.128;2022-07-05T11:33:35;21.50;99.90
15707;DHT22;7953;54.302;10.128;2022-07-05T11:36:04;21.50;99.90
15707;DHT22;7953;54.302;10.128;2022-07-05T11:38:32;21.10;99.90
15707;DHT22;7953;54.302;10.128;2022-07-05T11:41:12;21.00;99.90
15707;DHT22;7953;54.302;10.128;2022-07-05T11:43:41;21.40;99.90
15707;DHT22;7953;54.302;10.128;2022-07-05T11:46:09;21.80;99.90
15707;DHT22;7953;54.302;10.128;2022-07-05T11:48:36;22.30;99.90
15707;DHT22;7953;54.302;10.128;2022-07-05T11:51:14;22.90;99.90
15707;DHT22;7953;54.302;10.128;2022-07-05T11:53:41;23.40;99.90
15707;DHT22;7953;54.302;10.128;2022-07-05T11:56:09;23.30;99.90
15707;DHT22;7953;54.302;10.128;2022-07-05T11:58:37;23.30;99.90
15707;DHT22;7953;54.302;10.128;2022-07-05T12:01:05;23.40;99.90
15707;DHT22;7953;54.302;10.128;2022-07-05T12:03:32;23.40;99.90
15707;DHT22;7953;54.302;10.128;2022-07-05T12:06:10;23.60;99.90
15707;DHT22;7953;54.302;10.128;2022-07-05T12:08:37;23.70;99.90
15707;DHT22;7953;54.302;10.128;2022-07-05T12:11:04;23.40;99.90
15707;DHT22;7953;54.302;10.128;2022-07-05T12:13:50;23.40;99.90
15707;DHT22;7953;54.302;10.128;2022-07-05T12:16:19;23.30;99.90
15707;DHT22;7953;54.302;10.128;2022-07-05T12:18:50;22.80;99.90
15707;DHT22;7953;54.302;10.128;2022-07-05T12:21:17;22.70;99.90
15707;DHT22;7953;54.302;10.128;2022-07-05T12:23:47;22.50;99.90
15707;DHT22;7953;54.302;10.128;2022-07-05T12:26:15;22.80;99.90
15707;DHT22;7953;54.302;10.128;2022-07-05T12:28:43;23.00;99.90
15707;DHT22;7953;54.302;10.128;2022-07-05T12:31:19;23.20;99.90
15707;DHT22;7953;54.302;10.128;2022-07-05T12:33:47;23.10;99.90
15707;DHT22;7953;54.302;10.128;2022-07-05T12:36:14;22.90;99.90
15707;DHT22;7953;54.302;10.128;2022-07-05T12:38:42;22.70;99.90
15707;DHT22;7953;54.302;10.128;2022-07-05T12:41:09;22.70;99.90
15707;DHT22;7953;54.302;10.128;2022-07-05T12:43:49;22.80;99.90
15707;DHT22;7953;54.302;10.128;2022-07-05T12:46:16;22.80;99.90
15707;DHT22;7953;54.302;10.128;2022-07-05T12:48:44;22.80;99.90
15707;DHT22;7953;54.302;10.128;2022-07-05T12:51:31;22.80;99.90
15707;DHT22;7953;54.302;10.128;2022-07-05T12:53:58;22.90;99.90
15707;DHT22;7953;54.302;10.128;2022-07-05T12:56:47;23.20;99.90
15707;DHT22;7953;54.302;10.128;2022-07-05T12:59:31;23.30;99.90
15707;DHT22;7953;54.302;10.128;2022-07-05T13:01:58;23.20;99.90
15707;DHT22;7953;54.302;10.128;2022-07-05T13:04:26;23.20;99.90
15707;DHT22;7953;54.302;10.128;2022-07-05T13:06:54;22.90;99.90
15707;DHT22;7953;54.302;10.128;2022-07-05T13:09:33;22.60;99.90
15707;DHT22;7953;54.302;10.128;2022-07-05T13:12:08;22.20;99.90
15707;DHT22;7953;54.302;10.128;2022-07-05T13:14:36;21.80;99.90
15707;DHT22;7953;54.302;10.128;2022-07-05T13:17:03;21.60;99.90
15707;DHT22;7953;54.302;10.128;2022-07-05T13:19:32;21.40;99.90
15707;DHT22;7953;54.302;10.128;2022-07-05T13:21:59;21.40;99.90
15707;DHT22;7953;54.302;10.128;2022-07-05T13:24:26;21.50;99.90
15707;DHT22;7953;54.302;10.128;2022-07-05T13:26:53;21.60;99.90
15707;DHT22;7953;54.302;10.128;2022-07-05T13:29:20;21.60;99.90
15707;DHT22;7953;54.302;10.128;2022-07-05T13:31:47;21.50;99.90
15707;DHT22;7953;54.302;10.128;2022-07-05T13:34:14;21.60;99.90
15707;DHT22;7953;54.302;10.128;2022-07-05T13:36:42;21.80;99.90
15707;DHT22;7953;54.302;10.128;2022-07-05T13:39:10;22.00;99.90
15707;DHT22;7953;54.302;10.128;2022-07-05T13:41:37;22.20;99.90
15707;DHT22;7953;54.302;10.128;2022-07-05T13:44:04;22.50;99.90
15707;DHT22;7953;54.302;10.128;2022-07-05T13:46:31;22.60;99.90
15707;DHT22;7953;54.302;10.128;2022-07-05T13:48:58;22.50;99.90
15707;DHT22;7953;54.302;10.128;2022-07-05T13:51:25;22.20;99.90
15707;DHT22;7953;54.302;10.128;2022-07-05T13:53:54;22.10;99.90
15707;DHT22;7953;54.302;10.128;2022-07-05T13:56:21;22.20;99.90
15707;DHT22;7953;54.302;10.128;2022-07-05T13:58:48;22.30;99.90
15707;DHT22;7953;54.302;10.128;2022-07-05T14:01:15;22.20;99.90
15707;DHT22;7953;54.302;10.128;2022-07-05T14:03:43;22.10;99.90
15707;DHT22;7953;54.302;10.128;2022-07-05T14:06:09;22.10;99.90
15707;DHT22;7953;54.302;10.128;2022-07-05T14:08:36;22.30;99.90
15707;DHT22;7953;54.302;10.128;2022-07-05T14:11:04;22.40;99.90
15707;DHT22;7953;54.302;10.128;2022-07-05T14:13:35;22.30;99.90
15707;DHT22;7953;54.302;10.128;2022-07-05T14:16:02;22.20;99.90
15707;DHT22;7953;54.302;10.128;2022-07-05T14:18:29;22.20;99.90
15707;DHT22;7953;54.302;10.128;2022-07-05T14:20:56;22.40;99.90
15707;DHT22;7953;54.302;10.128;2022-07-05T14:23:23;22.50;99.90
15707;DHT22;7953;54.302;10.128;2022-07-05T14:25:49;22.40;99.90
15707;DHT22;7953;54.302;10.128;2022-07-05T14:28:18;22.20;99.90
15707;DHT22;7953;54.302;10.128;2022-07-05T14:30:46;22.00;99.90
15707;DHT22;7953;54.302;10.128;2022-07-05T14:33:14;21.70;99.90
15707;DHT22;7953;54.302;10.128;2022-07-05T14:35:41;21.70;99.90
15707;DHT22;7953;54.302;10.128;2022-07-05T14:38:08;21.50;99.90
15707;DHT22;7953;54.302;10.128;2022-07-05T14:40:35;21.50;99.90
15707;DHT22;7953;54.302;10.128;2022-07-05T14:43:02;21.30;99.90
15707;DHT22;7953;54.302;10.128;2022-07-05T14:45:31;21.20;99.90
15707;DHT22;7953;54.302;10.128;2022-07-05T14:47:58;21.00;99.90
15707;DHT22;7953;54.302;10.128;2022-07-05T14:50:24;20.90;99.90
15707;DHT22;7953;54.302;10.128;2022-07-05T14:52:51;20.80;99.90
15707;DHT22;7953;54.302;10.128;2022-07-05T14:55:18;20.70;99.90
15707;DHT22;7953;54.302;10.128;2022-07-05T14:57:45;20.50;99.90
15707;DHT22;7953;54.302;10.128;2022-07-05T15:00:14;20.40;99.90
15707;DHT22;7953;54.302;10.128;2022-07-05T15:02:43;20.70;99.90
15707;DHT22;7953;54.302;10.128;2022-07-05T15:05:10;20.90;99.90
15707;DHT22;7953;54.302;10.128;2022-07-05T15:07:38;21.00;99.90
15707;DHT22;7953;54.302;10.128;2022-07-05T15:10:06;21.00;99.90
15707;DHT22;7953;54.302;10.128;2022-07-05T15:12:34;20.90;99.90
15707;DHT22;7953;54.302;10.128;2022-07-05T15:15:01;20.90;99.90
15707;DHT22;7953;54.302;10.128;2022-07-05T15:17:28;21.00;99.90
15707;DHT22;7953;54.302;10.128;2022-07-05T15:19:56;21.00;99.90
15707;DHT22;7953;54.302;10.128;2022-07-05T15:22:23;20.90;99.90
15707;DHT22;7953;54.302;10.128;2022-07-05T15:24:51;21.20;99.90
15707;DHT22;7953;54.302;10.128;2022-07-05T15:27:19;21.30;99.90
15707;DHT22;7953;54.302;10.128;2022-07-05T15:29:46;21.50;99.90
15707;DHT22;7953;54.302;10.128;2022-07-05T15:32:13;21.80;99.90
15707;DHT22;7953;54.302;10.128;2022-07-05T15:34:40;22.00;99.90
15707;DHT22;7953;54.302;10.128;2022-07-05T15:37:08;21.80;99.90
15707;DHT22;7953;54.302;10.128;2022-07-05T15:39:35;22.00;99.90
15707;DHT22;7953;54.302;10.128;2022-07-05T15:42:03;22.00;99.90
15707;DHT22;7953;54.302;10.128;2022-07-05T15:44:30;22.00;99.90